WIDD/BTH METAR and TAF weather

Enter ICAO airport designator
Station Type Date Time Source
WIDD METAR 2020/04/03 08:30 UTC NOAA

WIDD 030830Z 05014KT 9999 FEW014 32/25 Q1009 NOSIG


Station Type Date Time Source
WIDD Decoded METAR 2020/04/03 08:30 UTC NOAA

Station name not available
Apr 03, 2020 - 04:30 AM EDT / 2020.04.03 0830 UTC
Wind: from the NE (050 degrees) at 16 MPH (14 KT):0
Visibility: greater than 7 mile(s):0
Sky conditions: mostly clear
Temperature: 89 F (32 C)
Heat index: 100.6 F (38.1 C):1
Dew Point: 77 F (25 C)
Relative Humidity: 66%
Pressure (altimeter): 29.80 in. Hg (1009 hPa)
ob: WIDD 030830Z 05014KT 9999 FEW014 32/25 Q1009 NOSIG
cycle: 8

Station Type Date Time Source
WIDD TAF 2020/04/03 06:00 UTC NOAA

TAF WIDD 030500Z 0306/0406 04007KT 9999 SCT014 PROB40
TEMPO 0307/0309 5000 -TSRA FEW014CB

Example: see airport list